createdAt,value
2022-12-05T00:01:27.835Z,12.43
2022-12-05T00:03:57.938Z,10.95
2022-12-05T00:06:26.826Z,10.30
2022-12-05T00:08:54.475Z,11.88
2022-12-05T00:11:25.135Z,10.10
2022-12-05T00:13:54.349Z,9.00
2022-12-05T00:16:24.495Z,8.90
2022-12-05T00:18:52.758Z,9.88
2022-12-05T00:21:29.218Z,8.73
2022-12-05T00:23:57.577Z,8.88
2022-12-05T00:26:25.678Z,9.20
2022-12-05T00:28:53.185Z,9.30
2022-12-05T00:31:23.818Z,9.27
2022-12-05T00:33:52.634Z,9.40
2022-12-05T00:36:22.875Z,10.65
2022-12-05T00:38:51.178Z,9.48
2022-12-05T00:41:22.235Z,10.05
2022-12-05T00:43:50.646Z,9.48
2022-12-05T00:46:20.713Z,9.98
2022-12-05T00:48:48.433Z,9.82
2022-12-05T00:51:21.296Z,10.45
2022-12-05T00:53:49.306Z,10.88
2022-12-05T00:56:24.725Z,8.60
2022-12-05T00:58:54.735Z,9.02
2022-12-05T01:01:33.248Z,10.52
2022-12-05T01:04:04.318Z,9.45
2022-12-05T01:06:32.756Z,10.63
2022-12-05T01:09:00.426Z,9.40
2022-12-05T01:11:28.475Z,10.30
2022-12-05T01:13:56.626Z,10.40
2022-12-05T01:16:31.830Z,10.93
2022-12-05T01:19:01.675Z,9.85
2022-12-05T01:21:29.307Z,10.15
2022-12-05T01:23:57.589Z,12.63
2022-12-05T01:26:25.425Z,11.60
2022-12-05T01:28:53.218Z,11.40
2022-12-05T01:31:26.555Z,11.00
2022-12-05T01:33:56.265Z,11.05
2022-12-05T01:36:25.785Z,11.35
2022-12-05T01:38:53.956Z,11.13
2022-12-05T01:41:32.865Z,11.38
2022-12-05T01:44:12.256Z,10.82
2022-12-05T01:46:45.352Z,11.02
2022-12-05T01:49:28.595Z,11.40
2022-12-05T01:52:02.057Z,10.75
2022-12-05T01:54:30.345Z,10.23
2022-12-05T01:57:04.110Z,9.43
2022-12-05T01:59:36.226Z,9.50
2022-12-05T02:02:04.431Z,9.75
2022-12-05T02:04:35.774Z,9.20
2022-12-05T02:07:03.157Z,8.70
2022-12-05T02:09:30.456Z,9.07
2022-12-05T02:12:01.057Z,9.00
2022-12-05T02:14:43.477Z,7.97
2022-12-05T02:17:19.665Z,7.70
2022-12-05T02:20:08.406Z,8.50
2022-12-05T02:23:17.905Z,7.95
2022-12-05T02:26:03.445Z,8.57
2022-12-05T02:29:02.415Z,7.72
2022-12-05T02:31:46.337Z,8.27
2022-12-05T02:34:34.945Z,8.48
2022-12-05T02:37:10.546Z,8.35
2022-12-05T02:40:05.225Z,9.10
2022-12-05T02:42:57.085Z,8.18
2022-12-05T02:45:30.174Z,8.88
2022-12-05T02:47:59.226Z,9.25
2022-12-05T02:50:34.598Z,8.23
2022-12-05T02:53:07.508Z,8.00
2022-12-05T02:55:35.754Z,7.90
2022-12-05T02:58:07.625Z,8.38
2022-12-05T03:00:38.725Z,8.02
2022-12-05T03:03:14.297Z,9.30
2022-12-05T03:06:02.276Z,8.88
2022-12-05T03:08:53.011Z,7.88
2022-12-05T03:11:20.516Z,9.57
2022-12-05T03:13:58.994Z,8.93
2022-12-05T03:16:38.361Z,9.15
2022-12-05T03:19:32.514Z,9.18
2022-12-05T03:22:04.265Z,10.82
2022-12-05T03:24:35.206Z,9.82
2022-12-05T03:27:13.986Z,10.57
2022-12-05T03:30:02.228Z,9.90
2022-12-05T03:32:29.695Z,9.93
2022-12-05T03:35:22.774Z,10.30
2022-12-05T03:38:10.018Z,9.82
2022-12-05T03:40:52.206Z,9.88
2022-12-05T03:43:44.126Z,9.93
2022-12-05T03:46:43.615Z,9.30
2022-12-05T03:49:19.355Z,10.80
2022-12-05T03:52:01.748Z,9.75
2022-12-05T03:54:44.396Z,11.00
2022-12-05T03:57:20.866Z,10.32
2022-12-05T04:00:15.389Z,10.93
2022-12-05T04:02:50.202Z,10.30
2022-12-05T04:05:42.259Z,9.00
2022-12-05T04:08:19.999Z,11.55
2022-12-05T04:10:50.084Z,10.60
2022-12-05T04:13:24.913Z,11.77
2022-12-05T04:16:26.945Z,11.70
2022-12-05T04:19:03.982Z,10.75
2022-12-05T04:21:39.133Z,10.43
2022-12-05T04:24:36.760Z,9.80
2022-12-05T04:27:17.721Z,11.50
2022-12-05T04:30:04.171Z,11.40
2022-12-05T04:32:38.341Z,10.75
2022-12-05T04:35:13.242Z,10.50
2022-12-05T04:37:44.821Z,9.10
2022-12-05T04:40:41.782Z,8.63
2022-12-05T04:43:10.982Z,8.73
2022-12-05T04:45:40.051Z,10.18
2022-12-05T04:48:12.861Z,9.70
2022-12-05T04:50:42.322Z,9.23
2022-12-05T04:53:12.524Z,9.75
2022-12-05T04:55:44.051Z,10.93
2022-12-05T04:58:31.260Z,10.35
2022-12-05T05:01:18.813Z,11.85
2022-12-05T05:04:09.529Z,10.32
2022-12-05T05:06:41.200Z,9.50
2022-12-05T05:09:08.809Z,8.73
2022-12-05T05:11:37.180Z,11.27
2022-12-05T05:14:05.358Z,9.75
2022-12-05T05:16:36.809Z,9.95
2022-12-05T05:19:05.779Z,10.73
2022-12-05T05:21:35.781Z,10.55
2022-12-05T05:24:03.719Z,11.13
2022-12-05T05:26:33.449Z,10.52
2022-12-05T05:29:00.651Z,11.27
2022-12-05T05:31:28.272Z,10.55
2022-12-05T05:33:57.018Z,12.85
2022-12-05T05:36:27.351Z,11.90
2022-12-05T05:39:00.819Z,11.73
2022-12-05T05:41:32.120Z,9.82
2022-12-05T05:44:00.399Z,9.98
2022-12-05T05:46:30.669Z,10.65
2022-12-05T05:48:58.509Z,10.23
2022-12-05T05:51:28.135Z,10.77
2022-12-05T05:53:57.051Z,11.65
2022-12-05T05:56:24.240Z,11.23
2022-12-05T05:59:02.491Z,11.18
2022-12-05T06:01:30.309Z,11.25
2022-12-05T06:03:58.431Z,11.27
2022-12-05T06:06:26.829Z,11.23
2022-12-05T06:08:55.006Z,12.25
2022-12-05T06:11:26.277Z,12.45
2022-12-05T06:14:01.357Z,11.82
2022-12-05T06:16:30.221Z,11.35
2022-12-05T06:18:58.026Z,11.10
2022-12-05T06:21:25.322Z,10.48
2022-12-05T06:23:53.480Z,9.75
2022-12-05T06:26:21.988Z,8.65
2022-12-05T06:28:49.301Z,9.45
2022-12-05T06:31:21.193Z,8.25
2022-12-05T06:33:49.173Z,8.02
2022-12-05T06:36:18.851Z,7.82
2022-12-05T06:38:46.117Z,7.72
2022-12-05T06:41:19.411Z,8.73
2022-12-05T06:43:47.105Z,7.72
2022-12-05T06:46:16.135Z,7.88
2022-12-05T06:48:43.510Z,8.25
2022-12-05T06:51:12.561Z,6.43
2022-12-05T06:53:40.008Z,8.20
2022-12-05T06:56:13.932Z,7.32
2022-12-05T07:04:24.466Z,9.30
2022-12-05T07:06:53.519Z,8.80
2022-12-05T07:09:43.988Z,8.85
2022-12-05T07:12:12.448Z,9.20
2022-12-05T07:14:47.636Z,9.07
2022-12-05T07:17:16.049Z,7.38
2022-12-05T07:19:43.251Z,9.43
2022-12-05T07:22:15.413Z,10.10
2022-12-05T07:24:44.040Z,9.75
2022-12-05T07:27:11.432Z,9.80
2022-12-05T07:29:38.609Z,9.38
2022-12-05T07:32:06.228Z,9.65
2022-12-05T07:34:33.459Z,9.30
2022-12-05T07:37:01.172Z,9.75
2022-12-05T07:39:28.509Z,9.85
2022-12-05T07:41:55.610Z,9.43
2022-12-05T07:44:22.771Z,9.68
2022-12-05T07:46:51.509Z,9.15
2022-12-05T07:49:18.773Z,9.88
2022-12-05T07:51:45.969Z,9.07
2022-12-05T07:54:13.570Z,8.68
2022-12-05T07:56:44.739Z,8.65
2022-12-05T07:59:14.952Z,8.88
2022-12-05T08:04:23.098Z,9.23
2022-12-05T08:06:50.299Z,8.18
2022-12-05T08:09:17.458Z,8.60
2022-12-05T08:11:49.522Z,7.93
2022-12-05T08:17:00.994Z,8.43
2022-12-05T08:19:28.179Z,8.07
2022-12-05T08:21:55.731Z,8.68
2022-12-05T08:24:22.960Z,8.20
2022-12-05T08:26:50.149Z,8.90
2022-12-05T08:29:21.629Z,8.82
2022-12-05T08:31:50.932Z,9.35
2022-12-05T08:34:20.506Z,8.68
2022-12-05T08:36:48.279Z,8.95
2022-12-05T08:39:17.902Z,8.80
2022-12-05T08:41:46.388Z,8.45
2022-12-05T08:44:18.711Z,9.43
2022-12-05T08:46:50.349Z,9.23
2022-12-05T08:54:39.889Z,8.90
2022-12-05T08:57:07.081Z,8.93
2022-12-05T08:59:34.259Z,9.23
2022-12-05T09:02:01.461Z,8.88
2022-12-05T09:04:29.011Z,9.05
2022-12-05T09:06:56.149Z,9.32
2022-12-05T09:12:04.546Z,9.60
2022-12-05T09:14:33.187Z,9.10
2022-12-05T09:17:01.139Z,9.18
2022-12-05T09:19:28.879Z,9.00
2022-12-05T09:21:56.655Z,9.35
2022-12-05T09:24:23.920Z,8.75
2022-12-05T09:26:51.312Z,9.20
2022-12-05T09:29:18.770Z,7.22
2022-12-05T09:31:47.959Z,8.10
2022-12-05T09:34:15.834Z,7.43
2022-12-05T09:36:43.259Z,7.53
2022-12-05T09:39:11.399Z,7.93
2022-12-05T09:42:18.629Z,7.57
2022-12-05T09:45:22.879Z,7.18
2022-12-05T09:47:50.120Z,7.47
2022-12-05T09:50:23.121Z,7.75
2022-12-05T09:53:14.959Z,7.40
2022-12-05T09:55:57.648Z,7.45
2022-12-05T09:58:47.334Z,6.80
2022-12-05T10:01:27.814Z,8.00
2022-12-05T10:04:13.496Z,7.75
2022-12-05T10:06:59.010Z,7.50
2022-12-05T10:09:45.773Z,7.68
2022-12-05T10:12:50.954Z,7.05
2022-12-05T10:15:30.334Z,6.70
2022-12-05T10:18:03.009Z,6.82
2022-12-05T10:21:09.058Z,6.95
2022-12-05T10:23:59.124Z,6.72
2022-12-05T10:26:45.250Z,7.07
2022-12-05T10:29:21.606Z,6.72
2022-12-05T10:31:49.896Z,6.35
2022-12-05T10:34:32.603Z,6.43
2022-12-05T10:37:09.756Z,6.88
2022-12-05T10:39:38.084Z,6.35
2022-12-05T10:42:05.835Z,5.45
2022-12-05T10:44:34.283Z,6.03
2022-12-05T10:47:02.248Z,5.50
2022-12-05T10:49:31.314Z,6.22
2022-12-05T10:51:59.854Z,5.22
2022-12-05T10:54:31.563Z,5.38
2022-12-05T10:59:49.113Z,5.43
2022-12-05T11:02:36.965Z,5.25
2022-12-05T11:05:04.619Z,5.00
2022-12-05T11:07:44.246Z,5.45
2022-12-05T11:10:35.921Z,5.57
2022-12-05T11:13:15.804Z,5.03
2022-12-05T11:15:53.791Z,4.93
2022-12-05T11:18:25.224Z,5.15
2022-12-05T11:20:52.944Z,5.25
2022-12-05T11:23:28.274Z,4.93
2022-12-05T11:25:57.196Z,6.45
2022-12-05T11:28:38.124Z,5.47
2022-12-05T11:31:17.346Z,5.22
2022-12-05T11:34:01.999Z,5.80
2022-12-05T11:36:54.613Z,4.75
2022-12-05T11:39:21.966Z,5.30
2022-12-05T11:42:04.134Z,5.35
2022-12-05T11:45:03.594Z,5.25
2022-12-05T11:48:08.284Z,4.82
2022-12-05T11:53:34.614Z,4.90
2022-12-05T11:56:38.494Z,5.47
2022-12-05T11:59:14.594Z,5.27
2022-12-05T12:02:23.012Z,4.55
2022-12-05T12:05:41.347Z,5.32
2022-12-05T12:08:18.763Z,4.97
2022-12-05T12:11:04.663Z,4.90
2022-12-05T12:13:34.995Z,4.82
2022-12-05T12:16:10.558Z,5.68
2022-12-05T12:18:56.016Z,5.88
2022-12-05T12:21:44.896Z,6.00
2022-12-05T12:24:14.703Z,6.10
2022-12-05T12:26:41.825Z,6.45
2022-12-05T12:29:23.844Z,6.20
2022-12-05T12:32:40.817Z,6.30
2022-12-05T12:35:23.877Z,5.25
2022-12-05T12:38:09.163Z,5.88
2022-12-05T12:41:08.033Z,5.30
2022-12-05T12:43:54.506Z,6.63
2022-12-05T12:46:54.144Z,5.78
2022-12-05T12:49:42.424Z,5.03
2022-12-05T12:52:24.014Z,4.50
2022-12-05T12:55:22.094Z,4.93
2022-12-05T12:57:58.203Z,4.88
2022-12-05T13:00:40.369Z,4.75
2022-12-05T13:03:17.815Z,5.00
2022-12-05T13:05:50.553Z,4.82
2022-12-05T13:08:45.246Z,4.82
2022-12-05T13:11:15.523Z,4.50
2022-12-05T13:13:53.844Z,4.90
2022-12-05T13:16:28.726Z,4.70
2022-12-05T13:18:57.629Z,4.15
2022-12-05T13:21:26.506Z,3.72
2022-12-05T13:23:59.394Z,4.18
2022-12-05T13:26:26.644Z,3.65
2022-12-05T13:29:01.943Z,3.75
2022-12-05T13:31:36.148Z,3.58
2022-12-05T13:34:03.704Z,3.47
2022-12-05T13:36:59.393Z,3.08
2022-12-05T13:39:45.544Z,3.22
2022-12-05T13:42:32.874Z,3.40
2022-12-05T13:45:05.927Z,3.33
2022-12-05T13:47:48.834Z,3.33
2022-12-05T13:50:25.766Z,3.50
2022-12-05T13:56:06.454Z,3.10
2022-12-05T13:58:41.174Z,3.28
2022-12-05T14:01:27.013Z,3.08
2022-12-05T14:04:02.276Z,2.60
2022-12-05T14:06:36.294Z,2.60
2022-12-05T14:09:05.035Z,2.63
2022-12-05T14:11:32.364Z,2.80
2022-12-05T14:14:04.543Z,2.25
2022-12-05T14:16:32.517Z,2.70
2022-12-05T14:19:34.517Z,2.50
2022-12-05T14:22:19.802Z,3.15
2022-12-05T14:25:11.434Z,2.88
2022-12-05T14:27:46.997Z,2.90
2022-12-05T14:30:17.155Z,2.80
2022-12-05T14:32:44.585Z,3.10
2022-12-05T14:35:31.735Z,3.15
2022-12-05T14:38:04.912Z,3.20
2022-12-05T14:40:35.264Z,3.00
2022-12-05T14:43:04.188Z,2.30
2022-12-05T14:45:40.987Z,2.60
2022-12-05T14:48:14.376Z,2.53
2022-12-05T14:50:48.905Z,2.72
2022-12-05T14:53:40.831Z,3.00
2022-12-05T14:56:22.154Z,2.75
2022-12-05T14:59:05.441Z,3.10
2022-12-05T15:01:38.297Z,3.90
2022-12-05T15:04:37.187Z,3.47
2022-12-05T15:07:09.435Z,3.65
2022-12-05T15:10:07.275Z,3.60
2022-12-05T15:12:49.417Z,3.63
2022-12-05T15:15:22.804Z,3.47
2022-12-05T15:17:58.324Z,3.47
2022-12-05T15:23:45.685Z,3.78
2022-12-05T15:29:20.775Z,6.03
2022-12-05T15:31:50.953Z,5.35
2022-12-05T15:34:44.194Z,4.80
2022-12-05T15:37:15.685Z,3.92
2022-12-05T15:39:52.914Z,4.30
2022-12-05T15:42:29.488Z,4.00
2022-12-05T15:45:15.707Z,4.60
2022-12-05T15:47:45.124Z,4.15
2022-12-05T15:50:35.594Z,5.70
2022-12-05T15:53:55.203Z,5.20
2022-12-05T15:56:32.664Z,3.53
2022-12-05T15:59:03.414Z,3.08
2022-12-05T16:01:31.292Z,3.60
2022-12-05T16:04:16.646Z,2.88
2022-12-05T16:06:53.134Z,3.10
2022-12-05T16:09:27.947Z,3.55
2022-12-05T16:12:00.454Z,3.25
2022-12-05T16:17:21.603Z,3.60
2022-12-05T16:19:49.127Z,3.90
2022-12-05T16:22:25.393Z,3.95
2022-12-05T16:25:01.734Z,3.58
2022-12-05T16:27:34.660Z,3.42
2022-12-05T16:30:13.535Z,4.30
2022-12-05T16:32:42.775Z,3.47
2022-12-05T16:35:29.676Z,4.05
2022-12-05T16:38:27.102Z,4.93
2022-12-05T16:40:58.498Z,5.30
2022-12-05T16:43:27.752Z,6.00
2022-12-05T16:46:08.300Z,6.00
2022-12-05T16:48:36.343Z,6.45
2022-12-05T16:51:18.634Z,5.57
2022-12-05T16:53:51.884Z,5.68
2022-12-05T16:56:30.354Z,6.15
2022-12-05T16:59:02.865Z,6.15
2022-12-05T17:01:33.246Z,5.82
2022-12-05T17:04:04.737Z,5.20
2022-12-05T17:06:31.974Z,4.95
2022-12-05T17:08:59.463Z,5.00
2022-12-05T17:11:30.075Z,4.47
2022-12-05T17:13:58.763Z,4.72
2022-12-05T17:16:29.264Z,4.28
2022-12-05T17:18:56.596Z,4.47
2022-12-05T17:21:26.869Z,5.18
2022-12-05T17:23:54.303Z,4.57
2022-12-05T17:26:22.604Z,4.80
2022-12-05T17:28:53.344Z,4.57
2022-12-05T17:31:23.102Z,4.55
2022-12-05T17:33:52.464Z,4.60
2022-12-05T17:36:34.085Z,4.80
2022-12-05T17:39:01.356Z,4.43
2022-12-05T17:41:28.555Z,4.30
2022-12-05T17:44:41.595Z,4.38
2022-12-05T17:47:27.543Z,4.03
2022-12-05T17:49:54.864Z,4.53
2022-12-05T17:52:22.730Z,4.70
2022-12-05T17:54:50.363Z,4.70
2022-12-05T17:57:17.563Z,5.15
2022-12-05T17:59:44.785Z,5.70
2022-12-05T18:02:12.297Z,5.35
2022-12-05T18:04:39.596Z,5.47
2022-12-05T18:07:06.794Z,5.18
2022-12-05T18:09:34.064Z,5.70
2022-12-05T18:12:01.314Z,6.05
2022-12-05T18:14:28.686Z,6.10
2022-12-05T18:16:55.933Z,5.47
2022-12-05T18:19:23.247Z,6.10
2022-12-05T18:21:51.135Z,6.38
2022-12-05T18:24:18.422Z,5.85
2022-12-05T18:26:45.890Z,6.95
2022-12-05T18:29:13.145Z,6.10
2022-12-05T18:31:41.748Z,6.18
2022-12-05T18:34:09.205Z,5.93
2022-12-05T18:36:36.355Z,5.28
2022-12-05T18:39:04.005Z,6.18
2022-12-05T18:41:31.274Z,5.57
2022-12-05T18:43:58.793Z,5.70
2022-12-05T18:46:26.080Z,5.45
2022-12-05T18:48:53.423Z,5.65
2022-12-05T18:51:22.963Z,6.40
2022-12-05T18:53:52.877Z,6.45
2022-12-05T18:56:26.831Z,6.97
2022-12-05T19:01:22.959Z,6.25
2022-12-05T19:03:51.054Z,6.75
2022-12-05T19:06:21.697Z,6.90
2022-12-05T19:08:49.864Z,7.60
2022-12-05T19:11:19.636Z,7.32
2022-12-05T19:13:47.675Z,7.47
2022-12-05T19:16:19.587Z,7.80
2022-12-05T19:18:47.486Z,7.43
2022-12-05T19:21:14.646Z,7.45
2022-12-05T19:23:41.895Z,7.90
2022-12-05T19:26:37.398Z,8.32
2022-12-05T19:29:29.193Z,7.90
2022-12-05T19:32:02.612Z,8.55
2022-12-05T19:34:37.545Z,8.15
2022-12-05T19:37:04.895Z,7.82
2022-12-05T19:39:32.767Z,7.43
2022-12-05T19:42:11.745Z,7.30
2022-12-05T19:44:39.015Z,8.05
2022-12-05T19:47:06.566Z,8.98
2022-12-05T19:49:33.826Z,8.18
2022-12-05T19:52:02.194Z,8.73
2022-12-05T19:54:29.505Z,8.95
2022-12-05T19:57:17.646Z,9.07
2022-12-05T19:59:48.784Z,9.80
2022-12-05T20:02:28.366Z,8.82
2022-12-05T20:04:55.643Z,8.88
2022-12-05T20:07:22.844Z,8.20
2022-12-05T20:09:50.133Z,8.43
2022-12-05T20:12:17.294Z,8.90
2022-12-05T20:14:44.544Z,9.00
2022-12-05T20:17:11.870Z,9.25
2022-12-05T20:19:39.145Z,8.77
2022-12-05T20:22:06.365Z,9.13
2022-12-05T20:24:33.614Z,8.70
2022-12-05T20:27:01.808Z,9.07
2022-12-05T20:29:29.064Z,9.77
2022-12-05T20:31:58.184Z,8.43
2022-12-05T20:34:25.455Z,9.38
2022-12-05T20:36:52.625Z,9.02
2022-12-05T20:39:19.975Z,8.55
2022-12-05T20:41:49.227Z,9.73
2022-12-05T20:44:17.070Z,9.35
2022-12-05T20:46:44.727Z,10.13
2022-12-05T20:49:13.757Z,8.80
2022-12-05T20:51:45.317Z,9.43
2022-12-05T20:54:13.458Z,8.82
2022-12-05T20:56:41.444Z,9.05
2022-12-05T20:59:11.905Z,8.98
2022-12-05T21:01:40.418Z,8.73
2022-12-05T21:04:08.952Z,9.27
2022-12-05T21:06:39.128Z,9.35
2022-12-05T21:09:15.429Z,9.27
2022-12-05T21:11:43.222Z,9.48
2022-12-05T21:14:11.224Z,9.63
2022-12-05T21:16:38.598Z,9.60
2022-12-05T21:19:05.814Z,10.50
2022-12-05T21:21:34.352Z,9.75
2022-12-05T21:24:04.034Z,10.45
2022-12-05T21:26:33.074Z,9.60
2022-12-05T21:29:01.304Z,10.07
2022-12-05T21:31:31.287Z,9.00
2022-12-05T21:34:01.986Z,9.45
2022-12-05T21:36:32.285Z,10.40
2022-12-05T21:39:00.515Z,9.90
2022-12-05T21:41:27.882Z,9.75
2022-12-05T21:43:56.142Z,10.07
2022-12-05T21:46:25.043Z,10.88
2022-12-05T21:48:52.415Z,10.38
2022-12-05T21:51:20.448Z,10.35
2022-12-05T21:53:47.872Z,9.93
2022-12-05T21:56:17.497Z,10.50
2022-12-05T21:58:46.643Z,10.50
2022-12-05T22:01:18.856Z,10.00
2022-12-05T22:03:46.945Z,10.52
2022-12-05T22:06:17.012Z,11.18
2022-12-05T22:08:44.362Z,10.68
2022-12-05T22:11:19.936Z,10.88
2022-12-05T22:13:49.086Z,10.85
2022-12-05T22:16:17.297Z,11.40
2022-12-05T22:18:45.623Z,10.73
2022-12-05T22:21:21.295Z,10.13
2022-12-05T22:23:49.791Z,10.95
2022-12-05T22:26:18.694Z,10.98
2022-12-05T22:28:46.185Z,11.38
2022-12-05T22:31:15.564Z,10.05
2022-12-05T22:33:43.444Z,11.57
2022-12-05T22:36:12.422Z,11.98
2022-12-05T22:38:42.364Z,11.68
2022-12-05T22:41:14.394Z,11.38
2022-12-05T22:43:42.940Z,10.80
2022-12-05T22:46:19.171Z,11.20
2022-12-05T22:48:47.943Z,10.90
2022-12-05T22:51:16.231Z,10.70
2022-12-05T22:53:44.231Z,11.05
2022-12-05T22:56:14.056Z,11.20
2022-12-05T22:58:42.602Z,10.00
2022-12-05T23:01:14.004Z,10.65
2022-12-05T23:03:41.873Z,10.57
2022-12-05T23:06:11.959Z,11.10
2022-12-05T23:08:41.282Z,11.18
2022-12-05T23:11:09.806Z,11.05
2022-12-05T23:13:37.762Z,10.23
2022-12-05T23:16:23.700Z,10.30
2022-12-05T23:18:53.642Z,11.23
2022-12-05T23:21:26.121Z,10.73
2022-12-05T23:23:55.212Z,10.75
2022-12-05T23:26:24.851Z,10.57
2022-12-05T23:28:52.432Z,11.05
2022-12-05T23:31:19.957Z,10.27
2022-12-05T23:33:51.174Z,10.55
2022-12-05T23:36:19.871Z,11.00
2022-12-05T23:38:47.871Z,10.13
2022-12-05T23:41:21.574Z,10.85
2022-12-05T23:43:50.090Z,10.25
2022-12-05T23:46:20.658Z,11.40
2022-12-05T23:48:48.471Z,12.25
2022-12-05T23:51:20.164Z,11.50
2022-12-05T23:53:51.667Z,11.68
2022-12-05T23:56:22.220Z,13.02
2022-12-05T23:58:49.402Z,11.50
